createdAt,value
2018-12-18T00:02:11.383Z,58.00
2018-12-18T00:05:05.220Z,58.00
2018-12-18T00:08:10.112Z,58.00
2018-12-18T00:11:15.021Z,59.00
2018-12-18T00:14:19.928Z,58.00
2018-12-18T00:17:24.802Z,59.00
2018-12-18T00:20:30.693Z,59.00
2018-12-18T00:23:35.600Z,59.00
2018-12-18T00:26:41.476Z,59.00
2018-12-18T00:29:45.872Z,59.00
2018-12-18T00:32:50.747Z,59.00
2018-12-18T00:35:55.168Z,59.00
2018-12-18T00:39:00.080Z,59.00
2018-12-18T00:42:04.964Z,59.00
2018-12-18T00:44:58.810Z,58.00
2018-12-18T00:48:04.696Z,59.00
2018-12-18T00:51:09.602Z,59.00
2018-12-18T00:54:14.507Z,59.00
2018-12-18T00:57:19.403Z,59.00
2018-12-18T01:00:24.315Z,59.00
2018-12-18T01:03:29.208Z,59.00
2018-12-18T01:06:34.113Z,60.00
2018-12-18T01:09:39.026Z,58.00
2018-12-18T01:12:43.909Z,59.00
2018-12-18T01:15:37.744Z,59.00
2018-12-18T01:18:42.623Z,59.00
2018-12-18T01:21:47.030Z,60.00
2018-12-18T01:24:52.002Z,59.00
2018-12-18T01:27:56.826Z,59.00
2018-12-18T01:31:01.726Z,59.00
2018-12-18T01:34:07.610Z,58.00
2018-12-18T01:37:12.512Z,58.00
2018-12-18T01:40:17.408Z,58.00
2018-12-18T01:43:21.801Z,58.00
2018-12-18T01:46:27.242Z,61.00
2018-12-18T01:49:32.145Z,60.00
2018-12-18T01:52:38.006Z,60.00
2018-12-18T01:55:31.837Z,59.00
2018-12-18T01:58:36.720Z,59.00
2018-12-18T02:01:41.631Z,59.00
2018-12-18T02:04:46.543Z,59.00
2018-12-18T02:07:51.430Z,59.00
2018-12-18T02:10:56.319Z,59.00
2018-12-18T02:14:01.212Z,58.00
2018-12-18T02:17:05.620Z,59.00
2018-12-18T02:20:10.025Z,58.00
2018-12-18T02:23:14.896Z,59.00
2018-12-18T02:26:19.797Z,58.00
2018-12-18T02:29:24.678Z,58.00
2018-12-18T02:32:29.589Z,58.00
2018-12-18T02:35:23.421Z,58.00
2018-12-18T02:38:28.293Z,58.00
2018-12-18T02:41:33.208Z,58.00
2018-12-18T02:44:37.594Z,58.00
2018-12-18T02:47:42.500Z,58.00
2018-12-18T02:50:46.946Z,58.00
2018-12-18T02:53:51.791Z,60.00
2018-12-18T02:56:56.684Z,58.00
2018-12-18T03:00:01.600Z,61.00
2018-12-18T03:03:06.475Z,58.00
2018-12-18T03:06:10.891Z,58.00
2018-12-18T03:09:15.271Z,58.00
2018-12-18T03:12:20.181Z,58.00
2018-12-18T03:15:14.015Z,58.00
2018-12-18T03:18:18.403Z,58.00
2018-12-18T03:21:22.809Z,58.00
2018-12-18T03:24:27.197Z,58.00
2018-12-18T03:27:32.099Z,58.00
2018-12-18T03:30:36.994Z,58.00
2018-12-18T03:33:41.878Z,59.00
2018-12-18T03:36:46.293Z,58.00
2018-12-18T03:39:51.168Z,58.00
2018-12-18T03:42:56.087Z,58.00
2018-12-18T03:46:00.555Z,58.00
2018-12-18T03:49:04.888Z,58.00
2018-12-18T03:52:09.296Z,59.00
2018-12-18T03:55:02.615Z,58.00
2018-12-18T03:58:07.034Z,59.00
2018-12-18T04:01:11.449Z,58.00
2018-12-18T04:04:16.331Z,59.00
2018-12-18T04:07:21.244Z,59.00
2018-12-18T04:10:26.126Z,59.00
2018-12-18T04:13:30.545Z,58.00
2018-12-18T04:16:34.959Z,58.00
2018-12-18T04:19:39.840Z,58.00
2018-12-18T04:22:44.740Z,61.00
2018-12-18T04:25:38.543Z,58.00
2018-12-18T04:28:42.949Z,59.00
2018-12-18T04:31:47.356Z,58.00
2018-12-18T04:34:52.252Z,58.00
2018-12-18T04:37:58.170Z,58.00
2018-12-18T04:41:04.069Z,58.00
2018-12-18T04:44:09.979Z,59.00
2018-12-18T04:47:14.885Z,59.00
2018-12-18T04:50:20.881Z,58.00
2018-12-18T04:53:26.677Z,58.00
2018-12-18T04:56:31.081Z,60.00
2018-12-18T04:59:35.468Z,60.00
2018-12-18T05:02:39.870Z,60.00
2018-12-18T05:05:33.670Z,59.00
2018-12-18T05:08:38.581Z,58.00
2018-12-18T05:11:42.983Z,58.00
2018-12-18T05:14:47.393Z,59.00
2018-12-18T05:17:51.796Z,58.00
2018-12-18T05:20:56.174Z,60.00
2018-12-18T05:24:00.639Z,60.00
2018-12-18T05:27:04.976Z,58.00
2018-12-18T05:30:09.357Z,58.00
2018-12-18T05:33:13.763Z,60.00
2018-12-18T05:36:18.141Z,60.00
2018-12-18T05:39:22.542Z,60.00
2018-12-18T05:42:26.944Z,60.00
2018-12-18T05:45:20.257Z,59.00
2018-12-18T05:48:24.686Z,60.00
2018-12-18T05:51:30.253Z,59.00
2018-12-18T05:54:34.847Z,59.00
2018-12-18T05:57:39.312Z,60.00
2018-12-18T06:00:43.803Z,59.00
2018-12-18T06:03:48.490Z,59.00
2018-12-18T06:06:53.018Z,59.00
2018-12-18T06:09:57.375Z,59.00
2018-12-18T06:13:02.949Z,61.00
2018-12-18T06:16:07.456Z,59.00
2018-12-18T06:19:12.005Z,58.00
2018-12-18T06:22:16.566Z,59.00
2018-12-18T06:25:10.082Z,59.00
2018-12-18T06:28:14.594Z,59.00
2018-12-18T06:31:18.997Z,59.00
2018-12-18T06:34:23.557Z,58.00
2018-12-18T06:37:27.973Z,59.00
2018-12-18T06:40:32.357Z,63.00
2018-12-18T06:43:36.741Z,61.00
2018-12-18T06:46:41.140Z,64.00
2018-12-18T06:49:46.697Z,59.00
2018-12-18T06:52:51.240Z,58.00
2018-12-18T06:55:56.546Z,59.00
2018-12-18T06:59:00.526Z,58.00
2018-12-18T07:02:06.097Z,59.00
2018-12-18T07:04:59.514Z,59.00
2018-12-18T07:08:04.153Z,60.00
2018-12-18T07:11:08.792Z,60.00
2018-12-18T07:14:13.349Z,59.00
2018-12-18T07:17:17.917Z,59.00
2018-12-18T07:20:22.506Z,60.00
2018-12-18T07:23:27.069Z,60.00
2018-12-18T07:26:31.632Z,60.00
2018-12-18T07:29:36.204Z,59.00
2018-12-18T07:32:40.669Z,61.00
2018-12-18T07:35:34.180Z,60.00
2018-12-18T07:38:38.709Z,59.00
2018-12-18T07:41:43.109Z,59.00
2018-12-18T07:44:47.512Z,60.00
2018-12-18T07:47:51.886Z,60.00
2018-12-18T07:50:56.288Z,60.00
2018-12-18T07:54:00.665Z,60.00
2018-12-18T07:57:05.069Z,60.00
2018-12-18T08:00:09.479Z,59.00
2018-12-18T08:03:13.861Z,59.00
2018-12-18T08:06:18.278Z,60.00
2018-12-18T08:09:22.647Z,59.00
2018-12-18T08:12:27.052Z,59.00
2018-12-18T08:15:20.390Z,60.00
2018-12-18T08:18:24.866Z,58.00
2018-12-18T08:21:29.300Z,58.00
2018-12-18T08:24:33.686Z,60.00
2018-12-18T08:27:38.091Z,61.00
2018-12-18T08:30:42.992Z,60.00
2018-12-18T08:33:47.867Z,59.00
2018-12-18T08:36:52.273Z,59.00
2018-12-18T08:39:56.652Z,59.00
2018-12-18T08:43:01.061Z,60.00
2018-12-18T08:46:10.271Z,61.00
2018-12-18T08:49:09.858Z,60.00
2018-12-18T08:52:14.293Z,61.00
2018-12-18T08:55:07.797Z,59.00
2018-12-18T08:58:12.512Z,60.00
2018-12-18T09:01:17.047Z,60.00
2018-12-18T09:04:21.686Z,59.00
2018-12-18T09:07:26.128Z,60.00
2018-12-18T09:10:30.827Z,59.00
2018-12-18T09:13:35.371Z,60.00
2018-12-18T09:16:39.927Z,59.00
2018-12-18T09:19:44.519Z,60.00
2018-12-18T09:22:48.888Z,59.00
2018-12-18T09:25:53.292Z,59.00
2018-12-18T09:28:58.000Z,58.00
2018-12-18T09:32:02.598Z,59.00
2018-12-18T09:34:56.119Z,58.00
2018-12-18T09:38:00.759Z,59.00
2018-12-18T09:41:05.310Z,60.00
2018-12-18T09:44:09.724Z,60.00
2018-12-18T09:47:14.374Z,60.00
2018-12-18T09:50:19.055Z,60.00
2018-12-18T09:53:23.536Z,61.00
2018-12-18T09:56:28.060Z,61.00
2018-12-18T09:59:32.466Z,60.00
2018-12-18T10:02:36.853Z,58.00
2018-12-18T10:05:30.186Z,59.00
2018-12-18T10:08:34.592Z,60.00
2018-12-18T10:11:38.972Z,59.00
2018-12-18T10:14:43.380Z,58.00
2018-12-18T10:17:47.753Z,60.00
2018-12-18T10:20:52.163Z,59.00
2018-12-18T10:23:56.569Z,59.00
2018-12-18T10:27:00.956Z,59.00
2018-12-18T10:30:06.379Z,59.00
2018-12-18T10:33:10.765Z,59.00
2018-12-18T10:36:15.177Z,62.00
2018-12-18T10:39:19.586Z,66.00
2018-12-18T10:42:23.973Z,59.00
2018-12-18T10:45:17.313Z,59.00
2018-12-18T10:48:21.699Z,62.00
2018-12-18T10:51:26.110Z,59.00
2018-12-18T10:54:30.518Z,64.00
2018-12-18T10:57:34.905Z,59.00
2018-12-18T11:00:39.316Z,61.00
2018-12-18T11:03:43.708Z,59.00
2018-12-18T11:06:48.138Z,60.00
2018-12-18T11:09:52.522Z,60.00
2018-12-18T11:12:56.907Z,59.00
2018-12-18T11:16:01.322Z,62.00
2018-12-18T11:19:05.710Z,65.00
2018-12-18T11:22:10.126Z,64.00
2018-12-18T11:25:03.474Z,66.00
2018-12-18T11:28:07.870Z,66.00
2018-12-18T11:31:12.284Z,66.00
2018-12-18T11:34:16.678Z,66.00
2018-12-18T11:37:21.088Z,66.00
2018-12-18T11:40:25.505Z,66.00
2018-12-18T11:43:29.896Z,65.00
2018-12-18T11:46:34.307Z,65.00
2018-12-18T11:49:38.698Z,65.00
2018-12-18T11:52:43.110Z,66.00
2018-12-18T11:55:36.457Z,65.00
2018-12-18T11:58:40.846Z,61.00
2018-12-18T12:01:45.254Z,66.00
2018-12-18T12:04:49.644Z,64.00
2018-12-18T12:07:54.050Z,65.00
2018-12-18T12:10:58.602Z,62.00
2018-12-18T12:14:03.238Z,64.00
2018-12-18T12:17:07.841Z,61.00
2018-12-18T12:20:13.164Z,64.00
2018-12-18T12:23:18.987Z,59.00
2018-12-18T12:26:22.445Z,60.00
2018-12-18T12:29:27.046Z,59.00
2018-12-18T12:32:32.591Z,60.00
2018-12-18T12:35:25.660Z,59.00
2018-12-18T12:38:30.589Z,58.00
2018-12-18T12:41:46.583Z,59.00
2018-12-18T12:44:51.424Z,63.00
2018-12-18T12:47:55.428Z,59.00
2018-12-18T12:50:59.812Z,60.00
2018-12-18T12:54:05.401Z,59.00
2018-12-18T12:57:09.802Z,59.00
2018-12-18T13:00:14.175Z,59.00
2018-12-18T13:03:18.586Z,59.00
2018-12-18T13:06:22.982Z,59.00
2018-12-18T13:09:27.387Z,63.00
2018-12-18T13:12:31.786Z,61.00
2018-12-18T13:15:25.115Z,62.00
2018-12-18T13:18:29.515Z,59.00
2018-12-18T13:21:33.898Z,59.00
2018-12-18T13:24:38.302Z,60.00
2018-12-18T13:27:42.713Z,59.00
2018-12-18T13:30:47.107Z,59.00
2018-12-18T13:33:51.515Z,59.00
2018-12-18T13:36:55.896Z,59.00
2018-12-18T13:40:00.308Z,59.00
2018-12-18T13:43:04.713Z,59.00
2018-12-18T13:46:14.808Z,59.00
2018-12-18T13:49:13.502Z,60.00
2018-12-18T13:52:17.885Z,60.00
2018-12-18T13:55:11.224Z,59.00
2018-12-18T13:58:15.625Z,60.00
2018-12-18T14:01:20.011Z,60.00
2018-12-18T14:04:24.421Z,59.00
2018-12-18T14:07:28.796Z,62.00
2018-12-18T14:10:33.198Z,59.00
2018-12-18T14:13:37.602Z,60.00
2018-12-18T14:16:41.985Z,61.00
2018-12-18T14:19:46.385Z,60.00
2018-12-18T14:22:50.764Z,63.00
2018-12-18T14:25:55.165Z,62.00
2018-12-18T14:28:59.567Z,64.00
2018-12-18T14:32:03.948Z,59.00
2018-12-18T14:34:57.276Z,59.00
2018-12-18T14:38:01.658Z,60.00
2018-12-18T14:41:06.061Z,58.00
2018-12-18T14:44:10.466Z,59.00
2018-12-18T14:47:14.848Z,59.00
2018-12-18T14:50:19.254Z,61.00
2018-12-18T14:53:23.657Z,61.00
2018-12-18T14:56:28.040Z,59.00
2018-12-18T14:59:32.444Z,60.00
2018-12-18T15:02:36.823Z,62.00
2018-12-18T15:05:30.153Z,60.00
2018-12-18T15:08:34.558Z,61.00
2018-12-18T15:11:38.938Z,63.00
2018-12-18T15:14:43.339Z,59.00
2018-12-18T15:17:47.721Z,59.00
2018-12-18T15:20:52.116Z,59.00
2018-12-18T15:23:56.515Z,59.00
2018-12-18T15:27:00.903Z,60.00
2018-12-18T15:30:06.345Z,62.00
2018-12-18T15:33:10.722Z,61.00
2018-12-18T15:36:15.126Z,63.00
2018-12-18T15:39:20.538Z,62.00
2018-12-18T15:42:24.939Z,60.00
2018-12-18T15:45:18.273Z,59.00
2018-12-18T15:48:22.640Z,59.00
2018-12-18T15:51:27.036Z,59.00
2018-12-18T15:54:31.444Z,60.00
2018-12-18T15:57:35.826Z,59.00
2018-12-18T16:00:40.219Z,60.00
2018-12-18T16:03:45.611Z,60.00
2018-12-18T16:06:51.026Z,60.00
2018-12-18T16:09:55.437Z,60.00
2018-12-18T16:12:59.809Z,60.00
2018-12-18T16:16:04.207Z,60.00
2018-12-18T16:19:08.586Z,60.00
2018-12-18T16:22:12.981Z,61.00
2018-12-18T16:25:06.316Z,60.00
2018-12-18T16:28:10.687Z,61.00
2018-12-18T16:31:15.092Z,61.00
2018-12-18T16:34:19.470Z,63.00
2018-12-18T16:37:23.885Z,63.00
2018-12-18T16:40:28.295Z,63.00
2018-12-18T16:43:32.668Z,65.00
2018-12-18T16:46:37.074Z,62.00
2018-12-18T16:49:41.470Z,63.00
2018-12-18T16:52:45.861Z,65.00
2018-12-18T16:55:39.421Z,63.00
2018-12-18T16:58:44.589Z,63.00
2018-12-18T17:01:48.993Z,65.00
2018-12-18T17:04:54.399Z,65.00
2018-12-18T17:07:58.797Z,63.00
2018-12-18T17:11:03.203Z,66.00
2018-12-18T17:14:07.588Z,64.00
2018-12-18T17:17:11.992Z,66.00
2018-12-18T17:20:16.386Z,66.00
2018-12-18T17:23:20.791Z,65.00
2018-12-18T17:26:25.193Z,63.00
2018-12-18T17:29:29.576Z,61.00
2018-12-18T17:32:33.977Z,62.00
2018-12-18T17:35:27.287Z,62.00
2018-12-18T17:38:31.688Z,60.00
2018-12-18T17:41:36.091Z,60.00
2018-12-18T17:44:41.184Z,61.00
2018-12-18T17:47:44.873Z,60.00
2018-12-18T17:50:49.273Z,60.00
2018-12-18T17:53:53.678Z,60.00
2018-12-18T17:56:58.164Z,60.00
2018-12-18T18:00:02.560Z,61.00
2018-12-18T18:03:06.989Z,60.00
2018-12-18T18:06:11.507Z,60.00
2018-12-18T18:09:15.967Z,60.00
2018-12-18T18:12:21.382Z,60.00
2018-12-18T18:15:14.724Z,60.00
2018-12-18T18:18:19.189Z,60.00
2018-12-18T18:21:24.648Z,60.00
2018-12-18T18:24:29.104Z,60.00
2018-12-18T18:27:33.679Z,64.00
2018-12-18T18:30:38.059Z,63.00
2018-12-18T18:33:42.453Z,63.00
2018-12-18T18:36:47.023Z,63.00
2018-12-18T18:39:51.529Z,63.00
2018-12-18T18:42:56.007Z,59.00
2018-12-18T18:46:00.546Z,61.00
2018-12-18T18:49:04.944Z,61.00
2018-12-18T18:52:09.325Z,62.00
2018-12-18T18:55:02.656Z,61.00
2018-12-18T18:58:07.040Z,63.00
2018-12-18T19:01:11.529Z,60.00
2018-12-18T19:04:16.035Z,62.00
2018-12-18T19:07:20.452Z,62.00
2018-12-18T19:10:24.917Z,61.00
2018-12-18T19:13:29.303Z,60.00
2018-12-18T19:16:33.728Z,60.00
2018-12-18T19:19:39.141Z,61.00
2018-12-18T19:22:43.583Z,59.00
2018-12-18T19:25:36.903Z,59.00
2018-12-18T19:28:41.274Z,59.00
2018-12-18T19:31:45.669Z,59.00
2018-12-18T19:34:50.066Z,60.00
2018-12-18T19:37:54.446Z,63.00
2018-12-18T19:40:58.852Z,65.00
2018-12-18T19:44:03.233Z,62.00
2018-12-18T19:47:07.639Z,62.00
2018-12-18T19:50:12.072Z,65.00
2018-12-18T19:53:16.447Z,65.00
2018-12-18T19:56:20.861Z,64.00
2018-12-18T19:59:25.243Z,64.00
2018-12-18T20:02:29.651Z,64.00
2018-12-18T20:05:22.947Z,66.00
2018-12-18T20:08:27.351Z,64.00
2018-12-18T20:11:31.736Z,64.00
2018-12-18T20:14:36.138Z,64.00
2018-12-18T20:17:40.556Z,65.00
2018-12-18T20:20:44.933Z,65.00
2018-12-18T20:23:50.350Z,64.00
2018-12-18T20:26:54.722Z,66.00
2018-12-18T20:29:59.158Z,67.00
2018-12-18T20:33:03.554Z,64.00
2018-12-18T20:36:07.934Z,62.00
2018-12-18T20:39:12.423Z,68.00
2018-12-18T20:42:16.810Z,65.00
2018-12-18T20:45:10.188Z,65.00
2018-12-18T20:48:14.637Z,66.00
2018-12-18T20:51:19.032Z,66.00
2018-12-18T20:54:23.440Z,67.00
2018-12-18T20:57:27.856Z,66.00
2018-12-18T21:00:32.307Z,66.00
2018-12-18T21:03:36.748Z,64.00
2018-12-18T21:06:41.172Z,65.00
2018-12-18T21:09:45.607Z,64.00
2018-12-18T21:12:50.007Z,65.00
2018-12-18T21:15:54.413Z,65.00
2018-12-18T21:18:58.843Z,66.00
2018-12-18T21:22:03.503Z,65.00
2018-12-18T21:24:56.565Z,65.00
2018-12-18T21:28:00.944Z,65.00
2018-12-18T21:31:05.379Z,65.00
2018-12-18T21:34:10.190Z,65.00
2018-12-18T21:37:14.171Z,62.00
2018-12-18T21:40:18.604Z,61.00
2018-12-18T21:43:22.989Z,62.00
2018-12-18T21:46:28.373Z,64.00
2018-12-18T21:49:32.770Z,64.00
2018-12-18T21:52:37.143Z,62.00
2018-12-18T21:55:30.471Z,62.00
2018-12-18T21:58:34.874Z,62.00
2018-12-18T22:01:39.248Z,63.00
2018-12-18T22:04:43.643Z,63.00
2018-12-18T22:07:48.029Z,61.00
2018-12-18T22:10:52.432Z,62.00
2018-12-18T22:13:56.841Z,62.00
2018-12-18T22:17:01.219Z,61.00
2018-12-18T22:20:05.624Z,61.00
2018-12-18T22:23:10.006Z,60.00
2018-12-18T22:26:14.403Z,60.00
2018-12-18T22:29:18.820Z,60.00
2018-12-18T22:32:23.191Z,60.00
2018-12-18T22:35:16.520Z,60.00
2018-12-18T22:38:20.897Z,60.00
2018-12-18T22:41:25.308Z,61.00
2018-12-18T22:44:29.714Z,62.00
2018-12-18T22:47:34.095Z,61.00
2018-12-18T22:50:38.496Z,61.00
2018-12-18T22:53:42.891Z,61.00
2018-12-18T22:56:47.289Z,60.00
2018-12-18T22:59:51.689Z,63.00
2018-12-18T23:02:56.063Z,61.00
2018-12-18T23:06:00.476Z,60.00
2018-12-18T23:09:04.855Z,60.00
2018-12-18T23:12:09.270Z,62.00
2018-12-18T23:15:02.575Z,63.00
2018-12-18T23:18:06.976Z,62.00
2018-12-18T23:21:11.379Z,63.00
2018-12-18T23:24:15.750Z,65.00
2018-12-18T23:27:21.165Z,63.00
2018-12-18T23:30:25.544Z,61.00
2018-12-18T23:33:29.945Z,62.00
2018-12-18T23:36:34.342Z,67.00
2018-12-18T23:39:38.725Z,63.00
2018-12-18T23:42:43.126Z,65.00
2018-12-18T23:45:36.438Z,63.00
2018-12-18T23:48:41.857Z,62.00
2018-12-18T23:51:46.234Z,62.00
2018-12-18T23:54:50.624Z,61.00
2018-12-18T23:57:55.026Z,59.00
